Terminal Aerodrome Forecast
Issued by NWS Buffalo, NY

Home | Current Version | Previous Version | Text Only | Print | Product List | Glossary On
Versions: 1 2 3 4 5 6 7 8 9 10 11 12 13 14 15 16 17 18 19 20 21 22 23 24 25 26 27 28 29 30 31 32 33 34 35
000
FTUS41 KBUF 241400 AAA
TAFROC
TAF AMD
KROC 241450Z 2415/2512 35012G20KT P6SM FEW250
     FM241700 32012KT P6SM SCT250
     FM250100 27004KT P6SM SCT130
     FM250500 00000KT P6SM BKN110
     FM251000 12004KT P6SM BKN090=

USA.gov is the U.S. government's official web portal to all federal, state and local government web resources and services.